createdAt,value
2023-02-16T00:02:09.818Z,0.49
2023-02-16T00:05:26.707Z,0.48
2023-02-16T00:08:30.712Z,0.45
2023-02-16T00:11:54.595Z,0.46
2023-02-16T00:14:58.712Z,0.50
2023-02-16T00:18:17.799Z,0.56
2023-02-16T00:21:22.307Z,0.65
2023-02-16T00:24:28.459Z,0.68
2023-02-16T00:27:32.596Z,0.64
2023-02-16T00:30:36.574Z,0.59
2023-02-16T00:33:40.672Z,0.57
2023-02-16T00:36:44.643Z,0.57
2023-02-16T00:39:48.588Z,0.56
2023-02-16T00:42:52.684Z,0.54
2023-02-16T00:45:59.487Z,0.52
2023-02-16T00:49:04.288Z,0.56
2023-02-16T00:52:29.342Z,0.60
2023-02-16T00:55:35.978Z,0.59
2023-02-16T00:58:40.459Z,0.57
2023-02-16T01:01:47.370Z,0.52
2023-02-16T01:04:51.737Z,0.47
2023-02-16T01:08:14.780Z,0.40
2023-02-16T01:11:19.095Z,0.35
2023-02-16T01:14:23.079Z,0.34
2023-02-16T01:17:27.012Z,0.35
2023-02-16T01:20:31.448Z,0.35
2023-02-16T01:23:38.176Z,0.38
2023-02-16T01:26:46.644Z,0.40
2023-02-16T01:29:52.491Z,0.40
2023-02-16T01:32:56.604Z,0.38
2023-02-16T01:36:00.637Z,0.37
2023-02-16T01:39:05.959Z,0.34
2023-02-16T01:42:28.802Z,0.26
2023-02-16T01:45:40.538Z,0.19
2023-02-16T01:48:44.548Z,0.18
2023-02-16T01:51:48.774Z,0.19
2023-02-16T01:55:17.684Z,0.21
2023-02-16T01:58:30.505Z,0.22
2023-02-16T02:01:45.827Z,0.22
2023-02-16T02:05:08.851Z,0.22
2023-02-16T02:08:27.078Z,0.18
2023-02-16T02:11:43.296Z,0.13
2023-02-16T02:14:49.403Z,0.09
2023-02-16T02:17:53.781Z,0.06
2023-02-16T02:21:42.926Z,0.03
2023-02-16T02:24:52.961Z,-0.02
2023-02-16T02:28:12.539Z,-0.05
2023-02-16T02:31:25.348Z,-0.07
2023-02-16T02:35:10.901Z,-0.08
2023-02-16T02:38:33.574Z,-0.09
2023-02-16T02:42:05.884Z,-0.14
2023-02-16T02:45:27.022Z,-0.20
2023-02-16T02:48:32.911Z,-0.24
2023-02-16T02:51:40.448Z,-0.25
2023-02-16T02:55:05.296Z,-0.26
2023-02-16T02:58:29.812Z,-0.26
2023-02-16T03:01:37.437Z,-0.28
2023-02-16T03:04:42.510Z,-0.31
2023-02-16T03:07:49.009Z,-0.32
2023-02-16T03:11:36.873Z,-0.29
2023-02-16T03:14:52.932Z,-0.25
2023-02-16T03:18:18.900Z,-0.26
2023-02-16T03:21:43.807Z,-0.27
2023-02-16T03:25:07.259Z,-0.31
2023-02-16T03:28:31.961Z,-0.37
2023-02-16T03:31:39.239Z,-0.44
2023-02-16T03:34:43.748Z,-0.51
2023-02-16T03:37:48.074Z,-0.56
2023-02-16T03:40:52.644Z,-0.55
2023-02-16T03:43:56.765Z,-0.52
2023-02-16T03:47:00.677Z,-0.51
2023-02-16T03:50:05.477Z,-0.48
2023-02-16T03:53:09.549Z,-0.46
2023-02-16T03:56:13.499Z,-0.49
2023-02-16T03:59:17.563Z,-0.49
2023-02-16T04:02:22.199Z,-0.48
2023-02-16T04:05:26.312Z,-0.49
2023-02-16T04:08:30.427Z,-0.49
2023-02-16T04:11:53.183Z,-0.52
2023-02-16T04:14:58.101Z,-0.53
2023-02-16T04:18:02.020Z,-0.51
2023-02-16T04:21:06.314Z,-0.51
2023-02-16T04:24:10.246Z,-0.46
2023-02-16T04:27:14.211Z,-0.45
2023-02-16T04:30:36.422Z,-0.44
2023-02-16T04:33:40.674Z,-0.46
2023-02-16T04:36:44.764Z,-0.52
2023-02-16T04:39:48.717Z,-0.54
2023-02-16T04:42:52.692Z,-0.55
2023-02-16T04:45:56.669Z,-0.54
2023-02-16T04:49:00.645Z,-0.52
2023-02-16T04:52:05.455Z,-0.48
2023-02-16T04:55:11.134Z,-0.41
2023-02-16T04:58:16.241Z,-0.35
2023-02-16T05:01:22.143Z,-0.32
2023-02-16T05:04:26.372Z,-0.29
2023-02-16T05:07:30.347Z,-0.28
2023-02-16T05:10:34.364Z,-0.29
2023-02-16T05:13:57.117Z,-0.33
2023-02-16T05:17:01.135Z,-0.38
2023-02-16T05:20:06.221Z,-0.43
2023-02-16T05:23:10.188Z,-0.45
2023-02-16T05:26:14.117Z,-0.42
2023-02-16T05:29:18.194Z,-0.37
2023-02-16T05:32:22.275Z,-0.31
2023-02-16T05:35:26.353Z,-0.27
2023-02-16T05:38:30.250Z,-0.24
2023-02-16T05:41:34.288Z,-0.23
2023-02-16T05:44:38.396Z,-0.25
2023-02-16T05:47:42.343Z,-0.27
2023-02-16T05:50:46.436Z,-0.27
2023-02-16T05:53:50.853Z,-0.23
2023-02-16T05:56:55.514Z,-0.17
2023-02-16T05:59:59.432Z,-0.12
2023-02-16T06:03:03.530Z,-0.09
2023-02-16T06:06:07.979Z,-0.06
2023-02-16T06:09:12.279Z,-0.06
2023-02-16T06:12:16.294Z,-0.05
2023-02-16T06:15:20.317Z,-0.06
2023-02-16T06:18:25.138Z,-0.08
2023-02-16T06:21:30.171Z,-0.08
2023-02-16T06:24:34.189Z,-0.07
2023-02-16T06:27:38.172Z,-0.03
2023-02-16T06:30:42.781Z,0.04
2023-02-16T06:33:47.778Z,0.10
2023-02-16T06:36:51.740Z,0.13
2023-02-16T06:39:55.784Z,0.14
2023-02-16T06:42:59.732Z,0.14
2023-02-16T06:46:04.143Z,0.14
2023-02-16T06:49:08.196Z,0.14
2023-02-16T06:52:12.392Z,0.16
2023-02-16T06:55:16.506Z,0.20
2023-02-16T06:58:20.857Z,0.27
2023-02-16T07:01:26.230Z,0.33
2023-02-16T07:04:30.603Z,0.39
2023-02-16T07:07:34.576Z,0.45
2023-02-16T07:10:49.863Z,0.50
2023-02-16T07:13:54.631Z,0.52
2023-02-16T07:17:03.357Z,0.54
2023-02-16T07:20:08.336Z,0.58
2023-02-16T07:23:12.417Z,0.65
2023-02-16T07:26:16.530Z,0.75
2023-02-16T07:29:20.860Z,0.84
2023-02-16T07:32:24.902Z,0.91
2023-02-16T07:35:29.082Z,0.97
2023-02-16T07:38:33.203Z,1.02
2023-02-16T07:41:37.215Z,1.05
2023-02-16T07:44:44.201Z,1.11
2023-02-16T07:47:48.222Z,1.18
2023-02-16T07:50:52.633Z,1.25
2023-02-16T07:53:58.295Z,1.35
2023-02-16T07:57:02.406Z,1.45
2023-02-16T08:00:07.905Z,1.52
2023-02-16T08:03:17.828Z,1.59
2023-02-16T08:06:23.161Z,1.62
2023-02-16T08:09:27.175Z,1.67
2023-02-16T08:12:31.196Z,1.74
2023-02-16T08:15:35.065Z,1.83
2023-02-16T08:18:41.911Z,1.95
2023-02-16T08:21:49.393Z,2.10
2023-02-16T08:24:54.229Z,2.24
2023-02-16T08:27:58.183Z,2.35
2023-02-16T08:31:04.712Z,2.41
2023-02-16T08:34:12.053Z,2.44
2023-02-16T08:37:16.032Z,2.51
2023-02-16T08:40:24.522Z,2.63
2023-02-16T08:43:28.666Z,2.77
2023-02-16T08:46:34.814Z,2.90
2023-02-16T08:49:39.591Z,3.04
2023-02-16T08:52:43.598Z,3.17
2023-02-16T08:55:58.375Z,3.29
2023-02-16T08:59:02.774Z,3.39
2023-02-16T09:02:08.094Z,3.49
2023-02-16T09:05:13.562Z,3.54
2023-02-16T09:08:17.521Z,3.58
2023-02-16T09:11:22.823Z,3.63
2023-02-16T09:14:28.061Z,3.67
2023-02-16T09:17:32.289Z,3.74
2023-02-16T09:20:41.492Z,3.83
2023-02-16T09:23:48.422Z,3.92
2023-02-16T09:26:52.849Z,4.01
2023-02-16T09:29:58.692Z,4.10
2023-02-16T09:33:03.237Z,4.17
2023-02-16T09:36:12.665Z,4.24
2023-02-16T09:39:17.616Z,4.31
2023-02-16T09:42:21.617Z,4.36
2023-02-16T09:45:27.069Z,4.39
2023-02-16T09:48:35.780Z,4.42
2023-02-16T09:51:44.735Z,4.48
2023-02-16T09:54:53.144Z,4.52
2023-02-16T09:58:18.052Z,4.56
2023-02-16T10:01:29.270Z,4.60
2023-02-16T10:04:46.074Z,4.69
2023-02-16T10:08:02.175Z,4.82
2023-02-16T10:11:35.868Z,4.95
2023-02-16T10:14:49.366Z,5.09
2023-02-16T10:18:19.658Z,5.21
2023-02-16T10:21:27.518Z,5.29
2023-02-16T10:25:07.782Z,5.35
2023-02-16T10:28:21.291Z,5.42
2023-02-16T10:31:38.651Z,5.48
2023-02-16T10:35:06.751Z,5.55
2023-02-16T10:38:18.286Z,5.63
2023-02-16T10:41:33.032Z,5.71
2023-02-16T10:44:44.001Z,5.80
2023-02-16T10:47:48.606Z,5.91
2023-02-16T10:51:12.640Z,5.99
2023-02-16T10:54:20.528Z,6.08
2023-02-16T10:57:31.667Z,6.15
2023-02-16T11:01:04.093Z,6.23
2023-02-16T11:04:10.353Z,6.34
2023-02-16T11:07:17.963Z,6.43
2023-02-16T11:10:34.256Z,6.54
2023-02-16T11:13:38.586Z,6.66
2023-02-16T11:16:43.006Z,6.76
2023-02-16T11:20:05.768Z,6.83
2023-02-16T11:23:28.263Z,6.89
2023-02-16T11:26:32.164Z,7.00
2023-02-16T11:29:36.126Z,7.12
2023-02-16T11:32:40.964Z,7.26
2023-02-16T11:35:46.043Z,7.39
2023-02-16T11:39:00.167Z,7.49
2023-02-16T11:42:18.777Z,7.56
2023-02-16T11:45:26.206Z,7.69
2023-02-16T11:48:33.071Z,7.79
2023-02-16T11:51:37.512Z,7.83
2023-02-16T11:54:52.828Z,7.82
2023-02-16T11:58:25.248Z,7.85
2023-02-16T12:02:04.022Z,7.87
2023-02-16T12:05:42.744Z,7.90
2023-02-16T12:09:17.850Z,7.91
2023-02-16T12:12:31.109Z,7.94
2023-02-16T12:15:58.201Z,7.97
2023-02-16T12:19:20.453Z,8.02
2023-02-16T12:22:34.898Z,8.05
2023-02-16T12:25:46.762Z,8.08
2023-02-16T12:29:11.807Z,8.10
2023-02-16T12:32:47.271Z,8.10
2023-02-16T12:36:22.680Z,8.11
2023-02-16T12:39:58.873Z,8.14
2023-02-16T12:43:36.958Z,8.19
2023-02-16T12:46:45.290Z,8.21
2023-02-16T12:49:55.557Z,8.23
2023-02-16T12:53:20.377Z,8.25
2023-02-16T12:56:31.244Z,8.27
2023-02-16T12:59:47.542Z,8.29
2023-02-16T13:02:56.900Z,8.38
2023-02-16T13:06:29.977Z,8.43
2023-02-16T13:09:51.921Z,8.46
2023-02-16T13:13:02.711Z,8.50
2023-02-16T13:16:27.498Z,8.54
2023-02-16T13:19:33.681Z,8.58
2023-02-16T13:22:52.941Z,8.63
2023-02-16T13:26:10.821Z,8.70
2023-02-16T13:29:30.620Z,8.76
2023-02-16T13:33:02.608Z,8.79
2023-02-16T13:36:37.289Z,8.83
2023-02-16T13:39:56.959Z,8.85
2023-02-16T13:43:30.507Z,8.84
2023-02-16T13:46:40.840Z,8.84
2023-02-16T13:49:46.450Z,8.82
2023-02-16T13:52:56.790Z,8.80
2023-02-16T13:56:28.711Z,8.78
2023-02-16T13:59:36.621Z,8.74
2023-02-16T14:02:54.424Z,8.70
2023-02-16T14:06:33.016Z,8.68
2023-02-16T14:09:37.052Z,8.63
2023-02-16T14:12:42.597Z,8.60
2023-02-16T14:15:54.525Z,8.57
2023-02-16T14:19:16.675Z,8.56
2023-02-16T14:22:28.103Z,8.54
2023-02-16T14:25:37.110Z,8.52
2023-02-16T14:29:02.233Z,8.50
2023-02-16T14:32:21.606Z,8.48
2023-02-16T14:35:31.266Z,8.44
2023-02-16T14:38:41.639Z,8.37
2023-02-16T14:41:46.035Z,8.31
2023-02-16T14:45:24.370Z,8.24
2023-02-16T14:49:10.228Z,8.18
2023-02-16T14:52:23.552Z,8.12
2023-02-16T14:55:42.774Z,8.05
2023-02-16T14:58:54.824Z,7.99
2023-02-16T15:01:58.992Z,7.94
2023-02-16T15:05:17.907Z,7.90
2023-02-16T15:08:25.367Z,7.83
2023-02-16T15:12:01.024Z,7.78
2023-02-16T15:15:10.345Z,7.73
2023-02-16T15:18:40.437Z,7.73
2023-02-16T15:21:44.700Z,7.73
2023-02-16T15:24:56.214Z,7.73
2023-02-16T15:28:04.396Z,7.73
2023-02-16T15:31:18.333Z,7.70
2023-02-16T15:34:35.144Z,7.66
2023-02-16T15:37:40.569Z,7.57
2023-02-16T15:40:45.555Z,7.50
2023-02-16T15:43:52.060Z,7.43
2023-02-16T15:47:18.572Z,7.35
2023-02-16T15:50:28.441Z,7.26
2023-02-16T15:53:46.663Z,7.15
2023-02-16T15:56:52.636Z,7.06
2023-02-16T16:00:05.252Z,6.97
2023-02-16T16:03:17.902Z,6.87
2023-02-16T16:06:21.885Z,6.77
2023-02-16T16:09:31.081Z,6.66
2023-02-16T16:12:36.377Z,6.58
2023-02-16T16:15:43.946Z,6.54
2023-02-16T16:18:51.127Z,6.50
2023-02-16T16:21:55.994Z,6.45
2023-02-16T16:25:01.135Z,6.39
2023-02-16T16:28:13.351Z,6.31
2023-02-16T16:31:41.728Z,6.20
2023-02-16T16:34:45.939Z,6.08
2023-02-16T16:37:53.229Z,5.94
2023-02-16T16:41:03.867Z,5.84
2023-02-16T16:44:13.370Z,5.73
2023-02-16T16:47:38.881Z,5.61
2023-02-16T16:50:43.238Z,5.47
2023-02-16T16:53:50.156Z,5.35
2023-02-16T16:56:54.433Z,5.27
2023-02-16T16:59:58.428Z,5.20
2023-02-16T17:03:04.833Z,5.16
2023-02-16T17:06:10.637Z,5.09
2023-02-16T17:09:16.594Z,5.00
2023-02-16T17:12:22.485Z,4.95
2023-02-16T17:15:36.203Z,4.86
2023-02-16T17:18:40.235Z,4.78
2023-02-16T17:21:45.257Z,4.70
2023-02-16T17:24:49.805Z,4.60
2023-02-16T17:27:53.816Z,4.51
2023-02-16T17:30:57.709Z,4.41
2023-02-16T17:34:01.699Z,4.34
2023-02-16T17:37:09.155Z,4.27
2023-02-16T17:40:19.400Z,4.21
2023-02-16T17:43:25.873Z,4.18
2023-02-16T17:46:32.040Z,4.16
2023-02-16T17:49:35.940Z,4.17
2023-02-16T17:52:41.329Z,4.14
2023-02-16T17:55:47.521Z,4.10
2023-02-16T17:58:51.797Z,4.02
2023-02-16T18:01:55.908Z,3.95
2023-02-16T18:05:00.711Z,3.87
2023-02-16T18:08:05.170Z,3.80
2023-02-16T18:11:09.189Z,3.75
2023-02-16T18:14:14.109Z,3.73
2023-02-16T18:17:18.081Z,3.73
2023-02-16T18:20:22.878Z,3.74
2023-02-16T18:23:27.197Z,3.74
2023-02-16T18:26:33.670Z,3.74
2023-02-16T18:29:37.662Z,3.72
2023-02-16T18:32:42.027Z,3.69
2023-02-16T18:35:46.058Z,3.65
2023-02-16T18:38:51.585Z,3.60
2023-02-16T18:41:55.595Z,3.56
2023-02-16T18:44:59.546Z,3.54
2023-02-16T18:48:04.212Z,3.54
2023-02-16T18:51:09.820Z,3.55
2023-02-16T18:54:13.844Z,3.57
2023-02-16T18:57:18.003Z,3.60
2023-02-16T19:00:21.954Z,3.61
2023-02-16T19:03:25.910Z,3.63
2023-02-16T19:06:30.281Z,3.64
2023-02-16T19:09:34.401Z,3.62
2023-02-16T19:12:39.802Z,3.62
2023-02-16T19:15:43.734Z,3.65
2023-02-16T19:18:47.738Z,3.70
2023-02-16T19:21:51.905Z,3.75
2023-02-16T19:24:55.909Z,3.81
2023-02-16T19:27:59.854Z,3.87
2023-02-16T19:31:08.052Z,3.90
2023-02-16T19:34:12.156Z,3.92
2023-02-16T19:37:16.168Z,3.92
2023-02-16T19:40:20.288Z,3.93
2023-02-16T19:43:24.942Z,3.91
2023-02-16T19:46:30.373Z,3.87
2023-02-16T19:49:36.585Z,3.83
2023-02-16T19:52:40.648Z,3.82
2023-02-16T19:55:44.765Z,3.85
2023-02-16T19:58:49.549Z,3.89
2023-02-16T20:01:53.625Z,3.92
2023-02-16T20:04:57.736Z,3.94
2023-02-16T20:08:01.753Z,3.95
2023-02-16T20:11:08.531Z,3.96
2023-02-16T20:14:12.543Z,3.96
2023-02-16T20:17:16.562Z,3.97
2023-02-16T20:20:20.478Z,4.01
2023-02-16T20:23:24.508Z,4.06
2023-02-16T20:26:34.162Z,4.12
2023-02-16T20:29:39.079Z,4.17
2023-02-16T20:32:43.022Z,4.22
2023-02-16T20:35:48.303Z,4.23
2023-02-16T20:38:52.355Z,4.25
2023-02-16T20:41:58.311Z,4.25
2023-02-16T20:45:02.431Z,4.29
2023-02-16T20:48:06.510Z,4.33
2023-02-16T20:51:13.069Z,4.38
2023-02-16T20:54:17.051Z,4.43
2023-02-16T20:57:26.849Z,4.46
2023-02-16T21:00:31.463Z,4.48
2023-02-16T21:03:35.436Z,4.48
2023-02-16T21:06:40.052Z,4.48
2023-02-16T21:09:44.130Z,4.48
2023-02-16T21:12:48.057Z,4.49
2023-02-16T21:15:52.452Z,4.53
2023-02-16T21:18:56.922Z,4.55
2023-02-16T21:22:00.958Z,4.57
2023-02-16T21:25:05.497Z,4.57
2023-02-16T21:28:09.574Z,4.56
2023-02-16T21:31:17.700Z,4.55
2023-02-16T21:34:21.827Z,4.53
2023-02-16T21:37:25.776Z,4.54
2023-02-16T21:40:48.213Z,4.57
2023-02-16T21:43:58.971Z,4.61
2023-02-16T21:47:21.505Z,4.62
2023-02-16T21:50:25.441Z,4.61
2023-02-16T21:53:30.784Z,4.61
2023-02-16T21:56:39.553Z,4.58
2023-02-16T21:59:43.628Z,4.57
2023-02-16T22:02:47.610Z,4.55
2023-02-16T22:05:51.659Z,4.56
2023-02-16T22:08:56.078Z,4.60
2023-02-16T22:12:00.140Z,4.64
2023-02-16T22:15:04.192Z,4.67
2023-02-16T22:18:08.174Z,4.71
2023-02-16T22:21:12.687Z,4.72
2023-02-16T22:24:18.595Z,4.70
2023-02-16T22:27:22.636Z,4.68
2023-02-16T22:30:26.655Z,4.66
2023-02-16T22:33:30.670Z,4.65
2023-02-16T22:36:37.556Z,4.65
2023-02-16T22:39:42.084Z,4.68
2023-02-16T22:42:46.104Z,4.73
2023-02-16T22:45:50.052Z,4.77
2023-02-16T22:48:55.357Z,4.80
2023-02-16T22:51:59.375Z,4.82
2023-02-16T22:55:03.816Z,4.81
2023-02-16T22:58:07.818Z,4.78
2023-02-16T23:01:14.418Z,4.75
2023-02-16T23:04:19.006Z,4.71
2023-02-16T23:07:22.953Z,4.67
2023-02-16T23:10:27.209Z,4.63
2023-02-16T23:13:33.309Z,4.61
2023-02-16T23:16:37.226Z,4.60
2023-02-16T23:19:41.217Z,4.62
2023-02-16T23:22:45.270Z,4.62
2023-02-16T23:25:49.859Z,4.62
2023-02-16T23:28:56.792Z,4.60
2023-02-16T23:32:00.793Z,4.58
2023-02-16T23:35:06.243Z,4.53
2023-02-16T23:38:13.938Z,4.46
2023-02-16T23:41:18.553Z,4.38
2023-02-16T23:44:22.587Z,4.32
2023-02-16T23:47:26.915Z,4.30
2023-02-16T23:50:30.925Z,4.30
2023-02-16T23:53:35.451Z,4.33
2023-02-16T23:56:39.937Z,4.38
2023-02-16T23:59:43.864Z,4.42
